sensor_id;sensor_type;location;lat;lon;timestamp;P1;durP1;ratioP1;P2;durP2;ratioP2
18125;SDS011;53956;52.442;13.284;2022-08-19T00:00:38;11.52;;;10.05;;
18125;SDS011;53956;52.442;13.284;2022-08-19T00:03:05;11.77;;;10.55;;
18125;SDS011;53956;52.442;13.284;2022-08-19T00:05:32;14.40;;;10.68;;
18125;SDS011;53956;52.442;13.284;2022-08-19T00:08:00;11.77;;;10.48;;
18125;SDS011;53956;52.442;13.284;2022-08-19T00:10:28;10.77;;;9.68;;
18125;SDS011;53956;52.442;13.284;2022-08-19T00:12:55;12.02;;;10.48;;
18125;SDS011;53956;52.442;13.284;2022-08-19T00:15:22;11.70;;;10.50;;
18125;SDS011;53956;52.442;13.284;2022-08-19T00:17:49;11.95;;;10.45;;
18125;SDS011;53956;52.442;13.284;2022-08-19T00:20:16;12.55;;;10.27;;
18125;SDS011;53956;52.442;13.284;2022-08-19T00:22:46;13.48;;;11.07;;
18125;SDS011;53956;52.442;13.284;2022-08-19T00:25:14;12.25;;;10.95;;
18125;SDS011;53956;52.442;13.284;2022-08-19T00:27:42;12.63;;;11.20;;
18125;SDS011;53956;52.442;13.284;2022-08-19T00:30:09;11.73;;;10.57;;
18125;SDS011;53956;52.442;13.284;2022-08-19T00:32:37;13.27;;;11.02;;
18125;SDS011;53956;52.442;13.284;2022-08-19T00:35:04;12.82;;;10.93;;
18125;SDS011;53956;52.442;13.284;2022-08-19T00:37:31;11.65;;;10.43;;
18125;SDS011;53956;52.442;13.284;2022-08-19T00:39:59;13.02;;;10.70;;
18125;SDS011;53956;52.442;13.284;2022-08-19T00:42:29;12.20;;;10.90;;
18125;SDS011;53956;52.442;13.284;2022-08-19T00:44:56;13.70;;;10.68;;
18125;SDS011;53956;52.442;13.284;2022-08-19T00:47:22;13.80;;;10.73;;
18125;SDS011;53956;52.442;13.284;2022-08-19T00:49:50;12.25;;;10.85;;
18125;SDS011;53956;52.442;13.284;2022-08-19T00:52:21;12.27;;;10.68;;
18125;SDS011;53956;52.442;13.284;2022-08-19T00:54:52;12.02;;;10.50;;
18125;SDS011;53956;52.442;13.284;2022-08-19T00:57:20;13.27;;;10.75;;
18125;SDS011;53956;52.442;13.284;2022-08-19T00:59:52;13.02;;;10.80;;
18125;SDS011;53956;52.442;13.284;2022-08-19T01:02:21;12.50;;;11.20;;
18125;SDS011;53956;52.442;13.284;2022-08-19T01:04:48;15.40;;;11.13;;
18125;SDS011;53956;52.442;13.284;2022-08-19T01:07:15;12.65;;;11.18;;
18125;SDS011;53956;52.442;13.284;2022-08-19T01:09:42;13.43;;;11.95;;
18125;SDS011;53956;52.442;13.284;2022-08-19T01:12:08;11.73;;;10.50;;
18125;SDS011;53956;52.442;13.284;2022-08-19T01:14:36;13.50;;;11.15;;
18125;SDS011;53956;52.442;13.284;2022-08-19T01:17:06;13.75;;;11.85;;
18125;SDS011;53956;52.442;13.284;2022-08-19T01:19:35;12.43;;;10.80;;
18125;SDS011;53956;52.442;13.284;2022-08-19T01:22:06;13.93;;;11.50;;
18125;SDS011;53956;52.442;13.284;2022-08-19T01:24:38;12.98;;;11.55;;
18125;SDS011;53956;52.442;13.284;2022-08-19T01:27:06;12.70;;;11.25;;
18125;SDS011;53956;52.442;13.284;2022-08-19T01:29:34;12.25;;;10.95;;
18125;SDS011;53956;52.442;13.284;2022-08-19T01:32:03;14.38;;;11.30;;
18125;SDS011;53956;52.442;13.284;2022-08-19T01:34:31;12.48;;;11.00;;
18125;SDS011;53956;52.442;13.284;2022-08-19T01:36:59;12.35;;;11.10;;
18125;SDS011;53956;52.442;13.284;2022-08-19T01:39:31;12.05;;;10.80;;
18125;SDS011;53956;52.442;13.284;2022-08-19T01:41:59;12.60;;;11.30;;
18125;SDS011;53956;52.442;13.284;2022-08-19T01:44:28;13.38;;;10.98;;
18125;SDS011;53956;52.442;13.284;2022-08-19T01:46:54;13.48;;;11.20;;
18125;SDS011;53956;52.442;13.284;2022-08-19T01:49:22;15.85;;;11.45;;
18125;SDS011;53956;52.442;13.284;2022-08-19T01:51:51;18.52;;;11.65;;
18125;SDS011;53956;52.442;13.284;2022-08-19T01:54:19;17.08;;;11.82;;
18125;SDS011;53956;52.442;13.284;2022-08-19T01:56:46;19.98;;;13.18;;
18125;SDS011;53956;52.442;13.284;2022-08-19T01:59:16;14.90;;;12.18;;
18125;SDS011;53956;52.442;13.284;2022-08-19T02:01:45;17.20;;;12.65;;
18125;SDS011;53956;52.442;13.284;2022-08-19T02:04:12;20.52;;;12.85;;
18125;SDS011;53956;52.442;13.284;2022-08-19T02:06:39;19.52;;;12.52;;
18125;SDS011;53956;52.442;13.284;2022-08-19T02:09:06;15.32;;;12.07;;
18125;SDS011;53956;52.442;13.284;2022-08-19T02:11:35;14.43;;;11.70;;
18125;SDS011;53956;52.442;13.284;2022-08-19T02:14:03;14.73;;;11.60;;
18125;SDS011;53956;52.442;13.284;2022-08-19T02:16:33;13.68;;;12.07;;
18125;SDS011;53956;52.442;13.284;2022-08-19T02:19:01;13.40;;;11.52;;
18125;SDS011;53956;52.442;13.284;2022-08-19T02:21:29;14.75;;;11.93;;
18125;SDS011;53956;52.442;13.284;2022-08-19T02:23:56;12.73;;;11.10;;
18125;SDS011;53956;52.442;13.284;2022-08-19T02:26:23;14.73;;;11.13;;
18125;SDS011;53956;52.442;13.284;2022-08-19T02:28:50;14.85;;;11.10;;
18125;SDS011;53956;52.442;13.284;2022-08-19T02:31:17;13.15;;;11.73;;
18125;SDS011;53956;52.442;13.284;2022-08-19T02:33:48;13.75;;;11.25;;
18125;SDS011;53956;52.442;13.284;2022-08-19T02:36:16;15.27;;;11.45;;
18125;SDS011;53956;52.442;13.284;2022-08-19T02:38:43;13.30;;;11.00;;
18125;SDS011;53956;52.442;13.284;2022-08-19T02:41:11;12.63;;;11.32;;
18125;SDS011;53956;52.442;13.284;2022-08-19T02:43:39;12.73;;;11.38;;
18125;SDS011;53956;52.442;13.284;2022-08-19T02:46:14;12.77;;;11.35;;
18125;SDS011;53956;52.442;13.284;2022-08-19T02:48:47;12.30;;;10.80;;
18125;SDS011;53956;52.442;13.284;2022-08-19T02:51:15;13.13;;;10.50;;
18125;SDS011;53956;52.442;13.284;2022-08-19T02:53:43;12.63;;;10.98;;
18125;SDS011;53956;52.442;13.284;2022-08-19T02:56:10;12.95;;;10.65;;
18125;SDS011;53956;52.442;13.284;2022-08-19T02:58:36;11.68;;;10.48;;
18125;SDS011;53956;52.442;13.284;2022-08-19T03:01:03;14.55;;;11.43;;
18125;SDS011;53956;52.442;13.284;2022-08-19T03:03:30;13.15;;;11.73;;
18125;SDS011;53956;52.442;13.284;2022-08-19T03:06:06;16.02;;;10.90;;
18125;SDS011;53956;52.442;13.284;2022-08-19T03:08:35;13.63;;;12.23;;
18125;SDS011;53956;52.442;13.284;2022-08-19T03:11:03;12.20;;;10.90;;
18125;SDS011;53956;52.442;13.284;2022-08-19T03:13:30;13.82;;;12.25;;
18125;SDS011;53956;52.442;13.284;2022-08-19T03:15:57;13.55;;;11.75;;
18125;SDS011;53956;52.442;13.284;2022-08-19T03:18:24;15.95;;;11.80;;
18125;SDS011;53956;52.442;13.284;2022-08-19T03:20:51;13.63;;;12.18;;
18125;SDS011;53956;52.442;13.284;2022-08-19T03:23:21;15.48;;;12.35;;
18125;SDS011;53956;52.442;13.284;2022-08-19T03:25:49;13.43;;;11.82;;
18125;SDS011;53956;52.442;13.284;2022-08-19T03:28:18;15.05;;;12.32;;
18125;SDS011;53956;52.442;13.284;2022-08-19T03:30:54;13.82;;;12.38;;
18125;SDS011;53956;52.442;13.284;2022-08-19T03:33:24;15.23;;;12.95;;
18125;SDS011;53956;52.442;13.284;2022-08-19T03:36:02;15.05;;;13.48;;
18125;SDS011;53956;52.442;13.284;2022-08-19T03:38:33;15.55;;;13.00;;
18125;SDS011;53956;52.442;13.284;2022-08-19T03:41:04;14.43;;;12.50;;
18125;SDS011;53956;52.442;13.284;2022-08-19T03:43:33;14.75;;;13.02;;
18125;SDS011;53956;52.442;13.284;2022-08-19T03:46:02;15.93;;;13.57;;
18125;SDS011;53956;52.442;13.284;2022-08-19T03:48:31;15.32;;;13.73;;
18125;SDS011;53956;52.442;13.284;2022-08-19T03:50:58;16.40;;;14.50;;
18125;SDS011;53956;52.442;13.284;2022-08-19T03:53:26;15.68;;;13.52;;
18125;SDS011;53956;52.442;13.284;2022-08-19T03:55:55;16.08;;;13.35;;
18125;SDS011;53956;52.442;13.284;2022-08-19T03:58:23;16.13;;;13.20;;
18125;SDS011;53956;52.442;13.284;2022-08-19T04:00:49;15.52;;;13.77;;
18125;SDS011;53956;52.442;13.284;2022-08-19T04:03:16;16.20;;;13.18;;
18125;SDS011;53956;52.442;13.284;2022-08-19T04:05:43;15.75;;;14.15;;
18125;SDS011;53956;52.442;13.284;2022-08-19T04:08:10;16.15;;;13.20;;
18125;SDS011;53956;52.442;13.284;2022-08-19T04:10:37;14.60;;;12.93;;
18125;SDS011;53956;52.442;13.284;2022-08-19T04:13:06;15.05;;;13.07;;
18125;SDS011;53956;52.442;13.284;2022-08-19T04:15:38;19.55;;;13.40;;
18125;SDS011;53956;52.442;13.284;2022-08-19T04:18:06;16.58;;;13.52;;
18125;SDS011;53956;52.442;13.284;2022-08-19T04:20:37;17.80;;;14.45;;
18125;SDS011;53956;52.442;13.284;2022-08-19T04:23:05;18.83;;;14.02;;
18125;SDS011;53956;52.442;13.284;2022-08-19T04:25:34;16.88;;;14.38;;
18125;SDS011;53956;52.442;13.284;2022-08-19T04:28:02;17.00;;;13.55;;
18125;SDS011;53956;52.442;13.284;2022-08-19T04:30:30;15.95;;;13.38;;
18125;SDS011;53956;52.442;13.284;2022-08-19T04:33:03;16.92;;;12.75;;
18125;SDS011;53956;52.442;13.284;2022-08-19T04:35:33;16.10;;;12.57;;
18125;SDS011;53956;52.442;13.284;2022-08-19T04:38:01;15.60;;;12.32;;
18125;SDS011;53956;52.442;13.284;2022-08-19T04:40:27;16.52;;;13.43;;
18125;SDS011;53956;52.442;13.284;2022-08-19T04:43:12;16.13;;;12.77;;
18125;SDS011;53956;52.442;13.284;2022-08-19T04:45:42;14.57;;;12.80;;
18125;SDS011;53956;52.442;13.284;2022-08-19T04:48:09;14.20;;;11.50;;
18125;SDS011;53956;52.442;13.284;2022-08-19T04:50:39;13.95;;;11.82;;
18125;SDS011;53956;52.442;13.284;2022-08-19T04:53:07;13.73;;;11.98;;
18125;SDS011;53956;52.442;13.284;2022-08-19T04:55:34;13.70;;;11.88;;
18125;SDS011;53956;52.442;13.284;2022-08-19T04:58:03;14.77;;;11.73;;
18125;SDS011;53956;52.442;13.284;2022-08-19T05:00:31;13.75;;;12.27;;
18125;SDS011;53956;52.442;13.284;2022-08-19T05:02:59;14.40;;;11.50;;
18125;SDS011;53956;52.442;13.284;2022-08-19T05:05:25;14.23;;;11.18;;
18125;SDS011;53956;52.442;13.284;2022-08-19T05:07:52;12.88;;;11.52;;
18125;SDS011;53956;52.442;13.284;2022-08-19T05:10:20;13.25;;;11.10;;
18125;SDS011;53956;52.442;13.284;2022-08-19T05:12:47;12.98;;;11.32;;
18125;SDS011;53956;52.442;13.284;2022-08-19T05:15:14;14.20;;;10.68;;
18125;SDS011;53956;52.442;13.284;2022-08-19T05:17:40;14.05;;;11.68;;
18125;SDS011;53956;52.442;13.284;2022-08-19T05:20:29;14.68;;;11.05;;
18125;SDS011;53956;52.442;13.284;2022-08-19T05:23:13;12.65;;;11.35;;
18125;SDS011;53956;52.442;13.284;2022-08-19T05:25:42;13.30;;;10.73;;
18125;SDS011;53956;52.442;13.284;2022-08-19T05:28:09;11.23;;;10.15;;
18125;SDS011;53956;52.442;13.284;2022-08-19T05:30:36;12.82;;;10.95;;
18125;SDS011;53956;52.442;13.284;2022-08-19T05:33:02;13.50;;;11.07;;
18125;SDS011;53956;52.442;13.284;2022-08-19T05:35:30;12.30;;;11.00;;
18125;SDS011;53956;52.442;13.284;2022-08-19T05:37:57;14.73;;;11.25;;
18125;SDS011;53956;52.442;13.284;2022-08-19T05:40:24;11.93;;;10.68;;
18125;SDS011;53956;52.442;13.284;2022-08-19T05:42:50;12.57;;;10.85;;
18125;SDS011;53956;52.442;13.284;2022-08-19T05:45:18;13.10;;;11.30;;
18125;SDS011;53956;52.442;13.284;2022-08-19T05:47:45;12.65;;;10.68;;
18125;SDS011;53956;52.442;13.284;2022-08-19T05:50:11;12.07;;;10.77;;
18125;SDS011;53956;52.442;13.284;2022-08-19T05:52:40;12.50;;;10.20;;
18125;SDS011;53956;52.442;13.284;2022-08-19T05:55:06;12.35;;;9.85;;
18125;SDS011;53956;52.442;13.284;2022-08-19T05:57:33;11.63;;;9.85;;
18125;SDS011;53956;52.442;13.284;2022-08-19T06:00:00;10.90;;;9.80;;
18125;SDS011;53956;52.442;13.284;2022-08-19T06:02:37;12.18;;;9.90;;
18125;SDS011;53956;52.442;13.284;2022-08-19T06:05:04;11.70;;;9.60;;
18125;SDS011;53956;52.442;13.284;2022-08-19T06:07:33;11.90;;;10.23;;
18125;SDS011;53956;52.442;13.284;2022-08-19T06:10:02;13.68;;;10.68;;
18125;SDS011;53956;52.442;13.284;2022-08-19T06:12:29;15.13;;;13.00;;
18125;SDS011;53956;52.442;13.284;2022-08-19T06:14:58;11.88;;;10.27;;
18125;SDS011;53956;52.442;13.284;2022-08-19T06:17:25;13.15;;;10.82;;
18125;SDS011;53956;52.442;13.284;2022-08-19T06:19:51;14.57;;;11.40;;
18125;SDS011;53956;52.442;13.284;2022-08-19T06:22:18;14.35;;;11.75;;
18125;SDS011;53956;52.442;13.284;2022-08-19T06:24:45;13.60;;;11.73;;
18125;SDS011;53956;52.442;13.284;2022-08-19T06:27:13;13.55;;;10.77;;
18125;SDS011;53956;52.442;13.284;2022-08-19T06:32:07;16.90;;;12.48;;
18125;SDS011;53956;52.442;13.284;2022-08-19T06:34:34;16.02;;;12.27;;
18125;SDS011;53956;52.442;13.284;2022-08-19T06:37:01;17.23;;;12.32;;
18125;SDS011;53956;52.442;13.284;2022-08-19T06:39:35;17.40;;;11.75;;
18125;SDS011;53956;52.442;13.284;2022-08-19T06:42:04;12.60;;;11.27;;
18125;SDS011;53956;52.442;13.284;2022-08-19T06:44:35;14.43;;;12.07;;
18125;SDS011;53956;52.442;13.284;2022-08-19T06:47:04;15.20;;;12.10;;
18125;SDS011;53956;52.442;13.284;2022-08-19T06:49:33;13.75;;;12.25;;
18125;SDS011;53956;52.442;13.284;2022-08-19T06:52:00;15.02;;;11.77;;
18125;SDS011;53956;52.442;13.284;2022-08-19T06:54:28;15.18;;;12.63;;
18125;SDS011;53956;52.442;13.284;2022-08-19T06:56:55;12.82;;;11.30;;
18125;SDS011;53956;52.442;13.284;2022-08-19T06:59:22;16.70;;;12.25;;
18125;SDS011;53956;52.442;13.284;2022-08-19T07:01:54;16.88;;;12.65;;
18125;SDS011;53956;52.442;13.284;2022-08-19T07:04:23;15.00;;;12.65;;
18125;SDS011;53956;52.442;13.284;2022-08-19T07:06:56;14.70;;;12.73;;
18125;SDS011;53956;52.442;13.284;2022-08-19T07:09:25;14.98;;;13.13;;
18125;SDS011;53956;52.442;13.284;2022-08-19T07:11:53;15.65;;;12.15;;
18125;SDS011;53956;52.442;13.284;2022-08-19T07:14:21;15.30;;;13.00;;
18125;SDS011;53956;52.442;13.284;2022-08-19T07:16:51;15.35;;;13.68;;
18125;SDS011;53956;52.442;13.284;2022-08-19T07:19:22;14.00;;;12.45;;
18125;SDS011;53956;52.442;13.284;2022-08-19T07:21:51;16.45;;;13.40;;
18125;SDS011;53956;52.442;13.284;2022-08-19T07:24:19;18.40;;;12.98;;
18125;SDS011;53956;52.442;13.284;2022-08-19T07:26:49;14.18;;;12.52;;
18125;SDS011;53956;52.442;13.284;2022-08-19T07:29:17;14.98;;;12.20;;
18125;SDS011;53956;52.442;13.284;2022-08-19T07:31:48;19.20;;;13.73;;
18125;SDS011;53956;52.442;13.284;2022-08-19T07:34:15;15.27;;;13.27;;
18125;SDS011;53956;52.442;13.284;2022-08-19T07:36:44;16.55;;;13.82;;
18125;SDS011;53956;52.442;13.284;2022-08-19T07:39:12;15.80;;;14.02;;
18125;SDS011;53956;52.442;13.284;2022-08-19T07:41:40;18.65;;;14.40;;
18125;SDS011;53956;52.442;13.284;2022-08-19T07:44:08;15.48;;;12.98;;
18125;SDS011;53956;52.442;13.284;2022-08-19T07:46:38;15.35;;;13.68;;
18125;SDS011;53956;52.442;13.284;2022-08-19T07:49:07;17.55;;;14.95;;
18125;SDS011;53956;52.442;13.284;2022-08-19T07:51:44;16.02;;;13.27;;
18125;SDS011;53956;52.442;13.284;2022-08-19T07:54:13;15.75;;;14.05;;
18125;SDS011;53956;52.442;13.284;2022-08-19T07:56:39;16.27;;;14.43;;
18125;SDS011;53956;52.442;13.284;2022-08-19T07:59:06;16.80;;;14.38;;
18125;SDS011;53956;52.442;13.284;2022-08-19T08:01:34;18.02;;;14.13;;
18125;SDS011;53956;52.442;13.284;2022-08-19T08:04:01;18.58;;;15.80;;
18125;SDS011;53956;52.442;13.284;2022-08-19T08:06:47;16.80;;;15.00;;
18125;SDS011;53956;52.442;13.284;2022-08-19T08:09:33;19.83;;;15.38;;
18125;SDS011;53956;52.442;13.284;2022-08-19T08:12:03;16.95;;;15.15;;
18125;SDS011;53956;52.442;13.284;2022-08-19T08:14:33;19.08;;;15.90;;
18125;SDS011;53956;52.442;13.284;2022-08-19T08:17:02;20.17;;;16.23;;
18125;SDS011;53956;52.442;13.284;2022-08-19T08:19:30;18.27;;;15.57;;
18125;SDS011;53956;52.442;13.284;2022-08-19T08:21:59;20.70;;;16.20;;
18125;SDS011;53956;52.442;13.284;2022-08-19T08:24:28;17.60;;;15.73;;
18125;SDS011;53956;52.442;13.284;2022-08-19T08:26:57;21.38;;;17.58;;
18125;SDS011;53956;52.442;13.284;2022-08-19T08:29:25;19.52;;;17.48;;
18125;SDS011;53956;52.442;13.284;2022-08-19T08:31:53;19.98;;;17.30;;
18125;SDS011;53956;52.442;13.284;2022-08-19T08:34:20;22.13;;;17.30;;
18125;SDS011;53956;52.442;13.284;2022-08-19T08:36:47;18.55;;;16.67;;
18125;SDS011;53956;52.442;13.284;2022-08-19T08:39:18;21.05;;;16.67;;
18125;SDS011;53956;52.442;13.284;2022-08-19T08:41:50;17.13;;;15.23;;
18125;SDS011;53956;52.442;13.284;2022-08-19T08:44:23;18.33;;;16.50;;
18125;SDS011;53956;52.442;13.284;2022-08-19T08:46:58;19.83;;;16.40;;
18125;SDS011;53956;52.442;13.284;2022-08-19T08:49:29;17.92;;;16.05;;
18125;SDS011;53956;52.442;13.284;2022-08-19T08:52:00;18.92;;;16.83;;
18125;SDS011;53956;52.442;13.284;2022-08-19T08:54:32;19.20;;;17.10;;
18125;SDS011;53956;52.442;13.284;2022-08-19T08:57:02;19.27;;;16.77;;
18125;SDS011;53956;52.442;13.284;2022-08-19T08:59:34;20.02;;;16.70;;
18125;SDS011;53956;52.442;13.284;2022-08-19T09:02:03;18.58;;;16.58;;
18125;SDS011;53956;52.442;13.284;2022-08-19T09:04:29;18.88;;;16.23;;
18125;SDS011;53956;52.442;13.284;2022-08-19T09:07:09;17.92;;;15.68;;
18125;SDS011;53956;52.442;13.284;2022-08-19T09:09:47;18.40;;;16.50;;
18125;SDS011;53956;52.442;13.284;2022-08-19T09:12:17;18.02;;;16.00;;
18125;SDS011;53956;52.442;13.284;2022-08-19T09:14:49;18.33;;;16.38;;
18125;SDS011;53956;52.442;13.284;2022-08-19T09:17:20;17.23;;;15.45;;
18125;SDS011;53956;52.442;13.284;2022-08-19T09:19:56;20.30;;;15.32;;
18125;SDS011;53956;52.442;13.284;2022-08-19T09:22:25;16.92;;;15.13;;
18125;SDS011;53956;52.442;13.284;2022-08-19T09:24:54;17.45;;;14.95;;
18125;SDS011;53956;52.442;13.284;2022-08-19T09:27:22;18.02;;;15.13;;
18125;SDS011;53956;52.442;13.284;2022-08-19T09:29:50;18.98;;;14.73;;
18125;SDS011;53956;52.442;13.284;2022-08-19T09:32:18;16.33;;;13.80;;
18125;SDS011;53956;52.442;13.284;2022-08-19T09:34:45;19.15;;;14.73;;
18125;SDS011;53956;52.442;13.284;2022-08-19T09:37:12;16.67;;;14.27;;
18125;SDS011;53956;52.442;13.284;2022-08-19T09:39:39;16.13;;;14.45;;
18125;SDS011;53956;52.442;13.284;2022-08-19T09:42:08;17.40;;;13.80;;
18125;SDS011;53956;52.442;13.284;2022-08-19T09:44:37;18.45;;;13.88;;
18125;SDS011;53956;52.442;13.284;2022-08-19T09:47:04;16.80;;;14.02;;
18125;SDS011;53956;52.442;13.284;2022-08-19T09:49:31;17.00;;;14.30;;
18125;SDS011;53956;52.442;13.284;2022-08-19T09:51:57;18.35;;;14.25;;
18125;SDS011;53956;52.442;13.284;2022-08-19T09:54:24;14.82;;;13.20;;
18125;SDS011;53956;52.442;13.284;2022-08-19T09:56:51;15.93;;;13.45;;
18125;SDS011;53956;52.442;13.284;2022-08-19T09:59:19;17.90;;;13.65;;
18125;SDS011;53956;52.442;13.284;2022-08-19T10:01:46;14.55;;;13.07;;
18125;SDS011;53956;52.442;13.284;2022-08-19T10:04:13;16.83;;;13.85;;
18125;SDS011;53956;52.442;13.284;2022-08-19T10:06:40;15.77;;;13.70;;
18125;SDS011;53956;52.442;13.284;2022-08-19T10:09:08;16.10;;;13.73;;
18125;SDS011;53956;52.442;13.284;2022-08-19T10:11:39;16.98;;;14.18;;
18125;SDS011;53956;52.442;13.284;2022-08-19T10:14:06;20.88;;;17.92;;
18125;SDS011;53956;52.442;13.284;2022-08-19T10:16:35;19.00;;;16.30;;
18125;SDS011;53956;52.442;13.284;2022-08-19T10:19:04;18.13;;;15.07;;
18125;SDS011;53956;52.442;13.284;2022-08-19T10:21:31;17.63;;;14.57;;
18125;SDS011;53956;52.442;13.284;2022-08-19T10:24:00;18.17;;;14.27;;
18125;SDS011;53956;52.442;13.284;2022-08-19T10:26:31;15.15;;;12.80;;
18125;SDS011;53956;52.442;13.284;2022-08-19T10:29:01;14.40;;;12.95;;
18125;SDS011;53956;52.442;13.284;2022-08-19T10:31:30;15.00;;;13.48;;
18125;SDS011;53956;52.442;13.284;2022-08-19T10:33:59;14.82;;;13.23;;
18125;SDS011;53956;52.442;13.284;2022-08-19T10:36:28;16.42;;;12.65;;
18125;SDS011;53956;52.442;13.284;2022-08-19T10:38:57;14.82;;;12.95;;
18125;SDS011;53956;52.442;13.284;2022-08-19T10:41:26;16.27;;;13.40;;
18125;SDS011;53956;52.442;13.284;2022-08-19T10:43:55;15.50;;;13.00;;
18125;SDS011;53956;52.442;13.284;2022-08-19T10:46:24;14.23;;;12.73;;
18125;SDS011;53956;52.442;13.284;2022-08-19T10:48:52;14.60;;;13.07;;
18125;SDS011;53956;52.442;13.284;2022-08-19T10:51:21;14.30;;;12.80;;
18125;SDS011;53956;52.442;13.284;2022-08-19T10:54:05;14.20;;;12.48;;
18125;SDS011;53956;52.442;13.284;2022-08-19T10:56:33;14.02;;;12.40;;
18125;SDS011;53956;52.442;13.284;2022-08-19T10:59:18;15.80;;;12.60;;
18125;SDS011;53956;52.442;13.284;2022-08-19T11:01:47;16.60;;;13.48;;
18125;SDS011;53956;52.442;13.284;2022-08-19T11:04:15;15.77;;;13.38;;
18125;SDS011;53956;52.442;13.284;2022-08-19T11:06:44;15.88;;;13.30;;
18125;SDS011;53956;52.442;13.284;2022-08-19T11:09:12;13.88;;;12.45;;
18125;SDS011;53956;52.442;13.284;2022-08-19T11:11:40;14.05;;;12.40;;
18125;SDS011;53956;52.442;13.284;2022-08-19T11:14:07;16.10;;;13.75;;
18125;SDS011;53956;52.442;13.284;2022-08-19T11:16:34;16.00;;;14.20;;
18125;SDS011;53956;52.442;13.284;2022-08-19T11:19:03;17.98;;;13.95;;
18125;SDS011;53956;52.442;13.284;2022-08-19T11:21:31;14.73;;;13.13;;
18125;SDS011;53956;52.442;13.284;2022-08-19T11:24:02;14.85;;;13.27;;
18125;SDS011;53956;52.442;13.284;2022-08-19T11:26:31;15.45;;;12.85;;
18125;SDS011;53956;52.442;13.284;2022-08-19T11:29:00;13.82;;;12.43;;
18125;SDS011;53956;52.442;13.284;2022-08-19T11:31:29;17.33;;;12.98;;
18125;SDS011;53956;52.442;13.284;2022-08-19T11:33:57;15.40;;;13.00;;
18125;SDS011;53956;52.442;13.284;2022-08-19T11:36:25;15.00;;;13.38;;
18125;SDS011;53956;52.442;13.284;2022-08-19T11:38:51;15.70;;;12.93;;
18125;SDS011;53956;52.442;13.284;2022-08-19T11:41:20;14.30;;;12.90;;
18125;SDS011;53956;52.442;13.284;2022-08-19T11:43:49;14.55;;;13.05;;
18125;SDS011;53956;52.442;13.284;2022-08-19T11:46:17;13.50;;;11.98;;
18125;SDS011;53956;52.442;13.284;2022-08-19T11:48:44;13.43;;;12.13;;
18125;SDS011;53956;52.442;13.284;2022-08-19T11:51:12;17.52;;;13.00;;
18125;SDS011;53956;52.442;13.284;2022-08-19T11:53:40;14.30;;;12.57;;
18125;SDS011;53956;52.442;13.284;2022-08-19T11:56:07;16.05;;;12.07;;
18125;SDS011;53956;52.442;13.284;2022-08-19T11:58:36;12.80;;;11.50;;
18125;SDS011;53956;52.442;13.284;2022-08-19T12:01:04;13.70;;;12.13;;
18125;SDS011;53956;52.442;13.284;2022-08-19T12:03:32;12.07;;;10.77;;
18125;SDS011;53956;52.442;13.284;2022-08-19T12:05:58;12.23;;;10.98;;
18125;SDS011;53956;52.442;13.284;2022-08-19T12:08:29;12.35;;;10.90;;
18125;SDS011;53956;52.442;13.284;2022-08-19T12:10:56;12.52;;;11.00;;
18125;SDS011;53956;52.442;13.284;2022-08-19T12:13:23;11.80;;;10.60;;
18125;SDS011;53956;52.442;13.284;2022-08-19T12:15:50;12.18;;;10.18;;
18125;SDS011;53956;52.442;13.284;2022-08-19T12:18:18;10.75;;;9.75;;
18125;SDS011;53956;52.442;13.284;2022-08-19T12:20:44;12.93;;;11.27;;
18125;SDS011;53956;52.442;13.284;2022-08-19T12:23:12;12.50;;;10.45;;
18125;SDS011;53956;52.442;13.284;2022-08-19T12:25:43;11.38;;;10.23;;
18125;SDS011;53956;52.442;13.284;2022-08-19T12:28:13;11.52;;;10.32;;
18125;SDS011;53956;52.442;13.284;2022-08-19T12:30:39;11.57;;;9.27;;
18125;SDS011;53956;52.442;13.284;2022-08-19T12:33:08;11.38;;;9.77;;
18125;SDS011;53956;52.442;13.284;2022-08-19T12:35:34;11.40;;;10.20;;
18125;SDS011;53956;52.442;13.284;2022-08-19T12:38:01;11.02;;;9.70;;
18125;SDS011;53956;52.442;13.284;2022-08-19T12:40:28;14.18;;;10.20;;
18125;SDS011;53956;52.442;13.284;2022-08-19T12:42:54;11.10;;;9.98;;
18125;SDS011;53956;52.442;13.284;2022-08-19T12:45:21;11.45;;;10.23;;
18125;SDS011;53956;52.442;13.284;2022-08-19T12:47:48;10.25;;;9.23;;
18125;SDS011;53956;52.442;13.284;2022-08-19T12:50:16;10.48;;;9.40;;
18125;SDS011;53956;52.442;13.284;2022-08-19T12:52:43;10.90;;;9.82;;
18125;SDS011;53956;52.442;13.284;2022-08-19T12:55:09;11.55;;;9.43;;
18125;SDS011;53956;52.442;13.284;2022-08-19T12:57:37;10.98;;;9.05;;
18125;SDS011;53956;52.442;13.284;2022-08-19T13:00:05;11.00;;;9.35;;
18125;SDS011;53956;52.442;13.284;2022-08-19T13:02:35;11.07;;;9.50;;
18125;SDS011;53956;52.442;13.284;2022-08-19T13:05:03;10.18;;;9.18;;
18125;SDS011;53956;52.442;13.284;2022-08-19T13:07:33;10.98;;;8.98;;
18125;SDS011;53956;52.442;13.284;2022-08-19T13:10:00;10.63;;;9.48;;
18125;SDS011;53956;52.442;13.284;2022-08-19T13:12:27;10.57;;;9.25;;
18125;SDS011;53956;52.442;13.284;2022-08-19T13:14:54;10.35;;;9.20;;
18125;SDS011;53956;52.442;13.284;2022-08-19T13:17:21;10.38;;;9.18;;
18125;SDS011;53956;52.442;13.284;2022-08-19T13:19:54;10.27;;;9.10;;
18125;SDS011;53956;52.442;13.284;2022-08-19T13:22:21;9.93;;;8.93;;
18125;SDS011;53956;52.442;13.284;2022-08-19T13:24:50;10.43;;;9.32;;
18125;SDS011;53956;52.442;13.284;2022-08-19T13:27:18;12.68;;;10.00;;
18125;SDS011;53956;52.442;13.284;2022-08-19T13:29:45;10.88;;;9.77;;
18125;SDS011;53956;52.442;13.284;2022-08-19T13:32:29;10.90;;;9.77;;
18125;SDS011;53956;52.442;13.284;2022-08-19T13:35:14;12.73;;;10.50;;
18125;SDS011;53956;52.442;13.284;2022-08-19T13:37:41;11.23;;;10.05;;
18125;SDS011;53956;52.442;13.284;2022-08-19T13:40:10;10.68;;;9.48;;
18125;SDS011;53956;52.442;13.284;2022-08-19T13:42:40;13.45;;;10.52;;
18125;SDS011;53956;52.442;13.284;2022-08-19T13:45:08;13.00;;;9.82;;
18125;SDS011;53956;52.442;13.284;2022-08-19T13:47:35;14.32;;;9.73;;
18125;SDS011;53956;52.442;13.284;2022-08-19T13:50:08;10.80;;;9.68;;
18125;SDS011;53956;52.442;13.284;2022-08-19T13:52:36;12.77;;;9.90;;
18125;SDS011;53956;52.442;13.284;2022-08-19T13:55:03;10.60;;;9.60;;
18125;SDS011;53956;52.442;13.284;2022-08-19T13:57:32;12.43;;;9.13;;
18125;SDS011;53956;52.442;13.284;2022-08-19T13:59:59;12.02;;;9.32;;
18125;SDS011;53956;52.442;13.284;2022-08-19T14:02:29;12.23;;;9.65;;
18125;SDS011;53956;52.442;13.284;2022-08-19T14:04:56;10.90;;;9.20;;
18125;SDS011;53956;52.442;13.284;2022-08-19T14:07:24;11.20;;;9.57;;
18125;SDS011;53956;52.442;13.284;2022-08-19T14:09:51;15.10;;;10.27;;
18125;SDS011;53956;52.442;13.284;2022-08-19T14:12:18;11.00;;;9.57;;
18125;SDS011;53956;52.442;13.284;2022-08-19T14:14:47;11.55;;;9.60;;
18125;SDS011;53956;52.442;13.284;2022-08-19T14:17:14;11.52;;;10.10;;
18125;SDS011;53956;52.442;13.284;2022-08-19T14:19:41;11.55;;;9.43;;
18125;SDS011;53956;52.442;13.284;2022-08-19T14:22:08;11.57;;;9.65;;